Time;durP1;ratioP1;P1;durP2;ratioP2;P2;SDS_P1;SDS_P2;PMS_P1;PMS_P2;Temp;Humidity;BMP_temperature;BMP_pressure;BME280_temperature;BME280_humidity;BME280_pressure;Samples;Min_cycle;Max_cycle;Signal;HPM_P1;HPM_P2
2021/06/22 00:01:06;;;;;;;;;;;;;;;27.84;39.03;100041.91;5135221;27;19915;-68
2021/06/22 00:03:50;;;;;;;;;;;;;;;27.90;38.43;100036.56;5129291;27;19915;-68
2021/06/22 00:06:35;;;;;;;;;;;;;;;27.88;38.50;100037.03;5130968;28;19919;-68
2021/06/22 00:09:20;;;;;;;;;;;;;;;27.88;38.32;100036.25;5134966;27;20368;-69
2021/06/22 00:12:05;;;;;;;;;;;;;;;27.85;38.54;100035.09;5130431;27;19924;-69
2021/06/22 00:14:49;;;;;;;;;;;;;;;27.84;38.46;100043.94;5129996;27;20302;-69
2021/06/22 00:17:34;;;;;;;;;;;;;;;27.09;38.73;100039.88;5137841;27;19915;-72
2021/06/22 00:20:19;;;;;;;;;;;;;;;26.77;39.76;100043.56;5132073;27;19916;-72
2021/06/22 00:23:04;;;;;;;;;;;;;;;26.37;40.73;100048.66;5131158;28;19915;-72
2021/06/22 00:25:48;;;;;;;;;;;;;;;26.45;41.07;100052.06;5136333;27;19923;-72
2021/06/22 00:28:33;;;;;;;;;;;;;;;26.40;42.40;100053.38;5127605;27;19915;-72
2021/06/22 00:31:18;;;;;;;;;;;;;;;26.29;43.24;100050.06;5131716;27;19915;-71
2021/06/22 00:34:02;;;;;;;;;;;;;;;26.57;43.11;100048.50;5139381;27;19916;-71
2021/06/22 00:36:47;;;;;;;;;;;;;;;26.87;43.07;100056.47;5137747;27;19915;-70
2021/06/22 00:39:32;;;;;;;;;;;;;;;27.03;42.73;100050.81;5132630;27;20378;-70
2021/06/22 00:42:16;;;;;;;;;;;;;;;27.17;42.32;100052.41;5120898;27;19923;-71
2021/06/22 00:45:03;;;;;;;;;;;;;;;27.22;42.43;100057.44;5134011;27;19915;-71
2021/06/22 00:47:49;;;;;;;;;;;;;;;27.21;42.58;100048.28;5112909;27;19915;-71
2021/06/22 00:50:33;;;;;;;;;;;;;;;27.21;42.64;100056.66;5124660;27;20295;-72
2021/06/22 00:53:20;;;;;;;;;;;;;;;27.29;42.19;100059.22;5121066;27;19915;-70
2021/06/22 00:56:06;;;;;;;;;;;;;;;27.10;42.38;100056.19;5134254;27;19920;-70
2021/06/22 00:58:55;;;;;;;;;;;;;;;26.83;42.00;100050.16;5132884;27;19915;-71
2021/06/22 01:01:40;;;;;;;;;;;;;;;26.73;42.88;100045.69;5117571;27;19915;-71
2021/06/22 01:04:28;;;;;;;;;;;;;;;26.80;42.53;100042.69;5118204;27;19920;-71
2021/06/22 01:07:31;;;;;;;;;;;;;;;26.71;42.77;100045.34;5121548;27;19916;-72
2021/06/22 01:10:17;;;;;;;;;;;;;;;26.45;43.10;100038.09;5137870;27;19919;-72
2021/06/22 01:13:04;;;;;;;;;;;;;;;26.31;44.05;100034.47;5128838;27;20935;-70
2021/06/22 01:15:49;;;;;;;;;;;;;;;26.36;43.82;100036.72;5134907;27;19920;-72
2021/06/22 01:18:34;;;;;;;;;;;;;;;26.52;43.76;100029.53;5134327;27;19915;-70
2021/06/22 01:21:38;;;;;;;;;;;;;;;26.50;42.90;100032.00;5134503;27;19919;-71
2021/06/22 01:24:35;;;;;;;;;;;;;;;26.51;43.36;100034.34;5133761;27;19919;-71
2021/06/22 01:27:21;;;;;;;;;;;;;;;26.37;43.91;100043.88;5104376;27;19916;-72
2021/06/22 01:30:06;;;;;;;;;;;;;;;26.21;44.51;100043.84;5130014;27;19923;-70
2021/06/22 01:32:59;;;;;;;;;;;;;;;26.60;43.86;100042.84;5138258;27;19916;-70
2021/06/22 01:35:43;;;;;;;;;;;;;;;26.60;43.61;100044.88;5117053;27;19919;-71
2021/06/22 01:38:28;;;;;;;;;;;;;;;26.57;43.60;100037.34;5130367;27;19919;-71
2021/06/22 01:41:15;;;;;;;;;;;;;;;26.35;43.48;100037.97;5124398;27;19923;-70
2021/06/22 01:44:01;;;;;;;;;;;;;;;26.36;42.90;100027.59;5123380;27;20395;-71
2021/06/22 01:46:46;;;;;;;;;;;;;;;26.03;42.96;100034.41;5111316;27;19920;-70
2021/06/22 01:49:32;;;;;;;;;;;;;;;26.28;44.23;100040.94;5132090;27;19916;-72
2021/06/22 01:52:18;;;;;;;;;;;;;;;26.35;43.53;100043.53;5116378;27;20378;-72
2021/06/22 01:58:09;;;;;;;;;;;;;;;26.29;43.72;100042.50;5111825;27;19915;-71
2021/06/22 02:01:14;;;;;;;;;;;;;;;26.54;43.82;100049.41;5115414;27;19916;-72
2021/06/22 02:04:20;;;;;;;;;;;;;;;26.76;43.32;100051.19;5133602;27;19916;-72
2021/06/22 02:07:05;;;;;;;;;;;;;;;26.81;42.98;100047.06;5132449;27;20379;-72
2021/06/22 02:09:50;;;;;;;;;;;;;;;26.91;42.71;100053.59;5138298;27;20371;-73
2021/06/22 02:12:42;;;;;;;;;;;;;;;27.13;42.33;100048.94;5118380;27;20391;-73
2021/06/22 02:15:27;;;;;;;;;;;;;;;27.04;42.67;100046.00;5135391;27;20371;-73
2021/06/22 02:18:12;;;;;;;;;;;;;;;27.06;42.56;100044.34;5117189;27;19916;-73
2021/06/22 02:20:57;;;;;;;;;;;;;;;26.89;42.82;100042.84;5134536;27;19915;-73
2021/06/22 02:23:42;;;;;;;;;;;;;;;26.79;43.00;100053.06;5134930;27;19915;-71
2021/06/22 02:26:28;;;;;;;;;;;;;;;26.83;42.99;100052.97;5128061;27;19915;-72
2021/06/22 02:29:12;;;;;;;;;;;;;;;26.58;43.43;100047.28;5129014;27;20374;-70
2021/06/22 02:31:57;;;;;;;;;;;;;;;26.71;43.48;100051.72;5113282;27;19916;-71
2021/06/22 02:34:43;;;;;;;;;;;;;;;26.54;43.68;100052.97;5118673;27;19923;-71
2021/06/22 02:37:28;;;;;;;;;;;;;;;26.46;43.82;100062.00;5114489;27;19916;-73
2021/06/22 02:40:14;;;;;;;;;;;;;;;26.45;43.97;100054.84;5111311;27;21503;-72
2021/06/22 02:43:00;;;;;;;;;;;;;;;26.22;44.24;100048.25;5113745;27;19924;-73
2021/06/22 02:45:46;;;;;;;;;;;;;;;26.10;43.74;100046.16;5116616;27;20172;-72
2021/06/22 02:48:36;;;;;;;;;;;;;;;26.29;44.43;100042.50;5126390;27;19919;-71
2021/06/22 02:51:21;;;;;;;;;;;;;;;26.52;43.95;100049.06;5122042;27;19915;-72
2021/06/22 02:54:08;;;;;;;;;;;;;;;26.53;43.78;100057.00;5129527;27;20310;-72
2021/06/22 02:56:53;;;;;;;;;;;;;;;26.29;43.80;100053.66;5131790;27;19915;-74
2021/06/22 02:59:39;;;;;;;;;;;;;;;26.28;43.88;100045.72;5113698;27;20275;-74
2021/06/22 03:02:25;;;;;;;;;;;;;;;26.00;44.16;100058.38;5133296;27;19923;-72
2021/06/22 03:05:11;;;;;;;;;;;;;;;25.84;45.02;100061.94;5115887;27;19915;-70
2021/06/22 03:07:56;;;;;;;;;;;;;;;25.72;45.28;100065.41;5130441;27;19915;-71
2021/06/22 03:10:42;;;;;;;;;;;;;;;25.82;45.33;100056.00;5131386;27;19915;-70
2021/06/22 03:13:27;;;;;;;;;;;;;;;25.65;45.66;100062.00;5131020;27;19916;-70
2021/06/22 03:16:12;;;;;;;;;;;;;;;25.71;45.01;100063.03;5112789;27;20386;-71
2021/06/22 03:18:57;;;;;;;;;;;;;;;25.74;45.58;100056.63;5117890;27;20382;-70
2021/06/22 03:21:45;;;;;;;;;;;;;;;24.99;47.39;100071.38;5119072;27;19920;-70
2021/06/22 03:24:31;;;;;;;;;;;;;;;24.95;46.73;100070.66;5132778;27;20398;-70
2021/06/22 03:27:18;;;;;;;;;;;;;;;24.32;48.77;100072.63;5114984;27;19920;-70
2021/06/22 03:30:25;;;;;;;;;;;;;;;24.08;49.51;100077.34;5130435;27;19915;-71
2021/06/22 03:33:10;;;;;;;;;;;;;;;23.94;49.81;100074.81;5135851;27;20307;-71
2021/06/22 03:35:54;;;;;;;;;;;;;;;24.81;49.00;100068.13;5131329;27;19915;-71
2021/06/22 03:38:40;;;;;;;;;;;;;;;25.52;47.18;100070.22;5132030;28;19919;-72
2021/06/22 03:41:25;;;;;;;;;;;;;;;25.54;46.39;100065.78;5116165;28;19915;-72
2021/06/22 03:44:10;;;;;;;;;;;;;;;25.04;47.49;100076.44;5129434;28;19915;-72
2021/06/22 03:47:13;;;;;;;;;;;;;;;25.52;46.60;100071.00;5114713;28;20390;-71
2021/06/22 03:49:58;;;;;;;;;;;;;;;25.67;46.63;100081.84;5117156;27;19916;-71
2021/06/22 03:52:43;;;;;;;;;;;;;;;26.02;45.79;100083.78;5131199;27;19920;-72
2021/06/22 03:55:35;;;;;;;;;;;;;;;25.39;47.25;100086.81;5130117;27;20343;-71
2021/06/22 03:58:26;;;;;;;;;;;;;;;24.80;48.21;100091.59;5113595;28;19924;-72
2021/06/22 04:01:15;;;;;;;;;;;;;;;24.86;48.41;100092.66;5132395;27;20363;-71
2021/06/22 04:04:00;;;;;;;;;;;;;;;25.81;46.69;100089.84;5118003;27;19915;-71
2021/06/22 04:07:00;;;;;;;;;;;;;;;25.70;46.82;100089.34;5132869;27;19915;-72
2021/06/22 04:09:45;;;;;;;;;;;;;;;26.23;45.45;100097.22;5137193;27;20302;-71
2021/06/22 04:12:30;;;;;;;;;;;;;;;26.39;44.83;100100.00;5134015;27;20394;-71
2021/06/22 04:15:15;;;;;;;;;;;;;;;25.81;45.63;100101.00;5122870;27;19915;-71
2021/06/22 04:18:03;;;;;;;;;;;;;;;24.91;48.24;100103.31;5136041;27;19919;-72
2021/06/22 04:20:49;;;;;;;;;;;;;;;24.59;49.22;100101.09;5116335;27;19916;-72
2021/06/22 04:23:35;;;;;;;;;;;;;;;24.89;49.11;100117.66;5125999;27;19915;-71
2021/06/22 04:26:20;;;;;;;;;;;;;;;25.49;48.10;100112.84;5116267;27;19915;-71
2021/06/22 04:29:05;;;;;;;;;;;;;;;25.87;47.00;100110.41;5130760;27;19923;-71
2021/06/22 04:31:50;;;;;;;;;;;;;;;25.28;47.70;100130.00;5137086;27;19915;-75
2021/06/22 04:34:35;;;;;;;;;;;;;;;24.83;49.17;100124.13;5136942;27;19923;-74
2021/06/22 04:37:20;;;;;;;;;;;;;;;24.28;50.96;100131.03;5130468;27;19916;-74
2021/06/22 04:40:04;;;;;;;;;;;;;;;24.24;51.21;100125.53;5135477;27;19920;-74
2021/06/22 04:42:49;;;;;;;;;;;;;;;24.40;50.58;100133.22;5135291;27;19915;-73
2021/06/22 04:45:34;;;;;;;;;;;;;;;24.46;50.91;100134.31;5132606;27;19916;-73
2021/06/22 04:48:19;;;;;;;;;;;;;;;25.29;49.33;100137.94;5140286;27;19915;-72
2021/06/22 04:51:03;;;;;;;;;;;;;;;25.57;47.97;100144.91;5136864;27;19916;-71
2021/06/22 04:53:48;;;;;;;;;;;;;;;24.90;50.90;100144.25;5131522;27;19919;-70
2021/06/22 04:56:33;;;;;;;;;;;;;;;25.05;50.39;100150.34;5139545;27;19915;-73
2021/06/22 04:59:18;;;;;;;;;;;;;;;25.00;50.71;100150.84;5135218;27;19920;-72
2021/06/22 05:02:03;;;;;;;;;;;;;;;25.64;48.80;100152.34;5130376;27;20298;-71
2021/06/22 05:04:48;;;;;;;;;;;;;;;25.52;49.73;100157.31;5135966;27;19915;-72
2021/06/22 05:07:32;;;;;;;;;;;;;;;25.70;49.18;100164.53;5137038;27;19915;-71
2021/06/22 05:10:17;;;;;;;;;;;;;;;25.90;48.66;100162.50;5132309;27;19920;-72
2021/06/22 05:13:01;;;;;;;;;;;;;;;26.06;48.61;100165.28;5134748;27;19919;-71
2021/06/22 05:15:46;;;;;;;;;;;;;;;26.17;48.26;100171.41;5130942;27;20299;-71
2021/06/22 05:18:30;;;;;;;;;;;;;;;26.39;47.70;100178.06;5132444;27;19920;-71
2021/06/22 05:21:15;;;;;;;;;;;;;;;26.54;47.51;100174.91;5133758;27;19937;-71
2021/06/22 05:24:00;;;;;;;;;;;;;;;26.66;47.18;100174.22;5134813;27;19924;-71
2021/06/22 05:26:44;;;;;;;;;;;;;;;26.73;47.15;100180.38;5137435;27;19915;-71
2021/06/22 05:29:29;;;;;;;;;;;;;;;26.72;47.23;100183.59;5132371;27;19915;-72
2021/06/22 05:32:13;;;;;;;;;;;;;;;26.61;47.45;100180.31;5135172;27;19916;-71
2021/06/22 05:34:58;;;;;;;;;;;;;;;26.69;47.40;100185.28;5131225;27;19915;-72
2021/06/22 05:37:42;;;;;;;;;;;;;;;26.73;47.10;100179.59;5127022;27;19920;-72
2021/06/22 05:40:27;;;;;;;;;;;;;;;26.64;47.66;100185.00;5133295;27;19919;-71
2021/06/22 05:43:11;;;;;;;;;;;;;;;26.71;47.58;100185.63;5132540;27;19915;-72
2021/06/22 05:45:56;;;;;;;;;;;;;;;26.70;47.77;100188.84;5131751;27;19919;-74
2021/06/22 05:48:41;;;;;;;;;;;;;;;26.88;47.74;100189.19;5129027;27;19916;-73
2021/06/22 05:51:25;;;;;;;;;;;;;;;26.77;47.85;100199.81;5137444;27;20295;-73
2021/06/22 05:54:10;;;;;;;;;;;;;;;26.65;48.01;100192.97;5133285;27;19915;-73
2021/06/22 05:56:54;;;;;;;;;;;;;;;26.79;47.62;100187.00;5135789;27;19915;-72
2021/06/22 05:59:38;;;;;;;;;;;;;;;26.80;48.20;100196.16;5138124;27;19920;-72
2021/06/22 06:02:23;;;;;;;;;;;;;;;26.78;48.13;100198.59;5135630;27;19922;-72
2021/06/22 06:05:09;;;;;;;;;;;;;;;26.85;48.07;100197.63;5134063;27;19915;-72
2021/06/22 06:07:54;;;;;;;;;;;;;;;26.80;47.72;100199.75;5135884;27;19916;-72
2021/06/22 06:10:39;;;;;;;;;;;;;;;26.85;47.80;100208.78;5119467;27;19915;-71
2021/06/22 06:13:35;;;;;;;;;;;;;;;26.89;47.69;100196.34;5133486;27;19923;-73
2021/06/22 06:16:20;;;;;;;;;;;;;;;26.87;47.65;100206.38;5132323;27;19916;-72
2021/06/22 06:19:05;;;;;;;;;;;;;;;26.96;47.69;100204.53;5134784;27;19927;-73
2021/06/22 06:21:50;;;;;;;;;;;;;;;27.08;47.64;100209.38;5139671;27;20526;-72
2021/06/22 06:24:35;;;;;;;;;;;;;;;27.15;47.60;100214.78;5119532;27;20378;-73
2021/06/22 06:27:24;;;;;;;;;;;;;;;27.27;47.07;100210.47;5133868;27;19915;-73
2021/06/22 06:30:14;;;;;;;;;;;;;;;27.17;46.69;100214.34;5117289;27;19919;-68
2021/06/22 06:32:58;;;;;;;;;;;;;;;27.33;46.39;100216.31;5137359;27;19915;-67
2021/06/22 06:35:43;;;;;;;;;;;;;;;27.31;45.97;100215.94;5134285;27;19915;-68
2021/06/22 06:38:27;;;;;;;;;;;;;;;27.26;46.12;100222.88;5131514;27;19927;-68
2021/06/22 06:41:11;;;;;;;;;;;;;;;27.30;45.48;100228.34;5133440;27;19916;-68
2021/06/22 06:43:56;;;;;;;;;;;;;;;27.40;45.33;100230.84;5128989;27;19919;-68
2021/06/22 06:46:41;;;;;;;;;;;;;;;27.44;45.32;100233.53;5131920;27;19915;-68
2021/06/22 06:49:26;;;;;;;;;;;;;;;27.51;44.90;100231.34;5136406;27;19915;-67
2021/06/22 06:52:11;;;;;;;;;;;;;;;27.50;44.98;100231.78;5135210;27;19915;-69
2021/06/22 06:54:56;;;;;;;;;;;;;;;27.39;44.53;100240.44;5131051;27;19916;-69
2021/06/22 06:57:40;;;;;;;;;;;;;;;27.69;44.17;100238.44;5134221;27;19915;-67
2021/06/22 07:00:25;;;;;;;;;;;;;;;27.58;44.49;100242.31;5134612;27;20279;-69
2021/06/22 07:03:10;;;;;;;;;;;;;;;27.70;44.20;100232.41;5133093;27;20390;-70
2021/06/22 07:05:55;;;;;;;;;;;;;;;27.85;43.99;100236.34;5135017;27;19915;-68
2021/06/22 07:08:40;;;;;;;;;;;;;;;27.97;43.28;100234.81;5131209;27;19915;-68
2021/06/22 07:11:25;;;;;;;;;;;;;;;27.92;42.49;100235.34;5132325;27;19915;-72
2021/06/22 07:14:13;;;;;;;;;;;;;;;28.13;43.05;100237.53;5137139;27;20291;-72
2021/06/22 07:16:58;;;;;;;;;;;;;;;28.09;42.55;100240.38;5134876;27;19915;-71
2021/06/22 07:19:42;;;;;;;;;;;;;;;28.25;41.88;100239.53;5133278;27;19939;-72
2021/06/22 07:22:27;;;;;;;;;;;;;;;28.24;40.91;100237.97;5136807;27;20316;-71
2021/06/22 07:25:12;;;;;;;;;;;;;;;28.11;41.35;100233.56;5135126;27;19915;-70
2021/06/22 07:27:57;;;;;;;;;;;;;;;28.19;41.46;100235.72;5132075;27;19920;-70
2021/06/22 07:30:42;;;;;;;;;;;;;;;28.36;40.81;100245.56;5133457;27;20267;-70
2021/06/22 07:33:27;;;;;;;;;;;;;;;28.31;41.18;100236.97;5136537;27;19915;-70
2021/06/22 07:36:11;;;;;;;;;;;;;;;28.38;40.69;100242.34;5119098;27;20295;-69
2021/06/22 07:38:55;;;;;;;;;;;;;;;28.20;40.79;100239.31;5145521;27;20387;-70
2021/06/22 07:41:42;;;;;;;;;;;;;;;28.30;40.46;100235.38;5139858;27;19915;-69
2021/06/22 07:44:27;;;;;;;;;;;;;;;28.35;40.37;100246.00;5141971;27;19919;-69
2021/06/22 07:47:11;;;;;;;;;;;;;;;28.30;40.81;100241.75;5144102;27;19916;-69
2021/06/22 07:49:57;;;;;;;;;;;;;;;28.27;40.99;100239.09;5144263;27;20367;-69
2021/06/22 07:52:42;;;;;;;;;;;;;;;28.27;40.58;100233.50;5141852;27;19916;-69
2021/06/22 07:55:27;;;;;;;;;;;;;;;28.56;40.90;100242.53;5139766;27;19915;-69
2021/06/22 07:58:12;;;;;;;;;;;;;;;28.43;39.17;100228.56;5140972;27;19919;-69
2021/06/22 08:00:56;;;;;;;;;;;;;;;28.50;39.81;100227.53;5142569;27;19916;-70
2021/06/22 08:03:40;;;;;;;;;;;;;;;28.58;40.57;100226.09;5140208;27;19915;-69
2021/06/22 08:06:25;;;;;;;;;;;;;;;28.48;39.34;100228.00;5144169;27;19915;-69
2021/06/22 08:09:10;;;;;;;;;;;;;;;28.60;39.54;100220.06;5142169;27;19941;-69
2021/06/22 08:11:55;;;;;;;;;;;;;;;28.71;39.24;100226.84;5140381;27;20286;-70
2021/06/22 08:14:40;;;;;;;;;;;;;;;28.80;39.51;100229.75;5144235;27;20290;-70
2021/06/22 08:17:25;;;;;;;;;;;;;;;28.85;39.84;100226.38;5126776;27;19916;-69
2021/06/22 08:20:09;;;;;;;;;;;;;;;28.77;38.73;100230.66;5140769;27;19920;-69
2021/06/22 08:22:54;;;;;;;;;;;;;;;28.85;39.17;100234.78;5145111;27;20359;-70
2021/06/22 08:25:39;;;;;;;;;;;;;;;28.92;39.12;100230.97;5142360;27;19915;-68
2021/06/22 08:28:24;;;;;;;;;;;;;;;28.96;38.20;100230.81;5140460;27;20346;-70
2021/06/22 08:31:09;;;;;;;;;;;;;;;29.00;39.43;100234.31;5144864;27;19915;-69
2021/06/22 08:33:54;;;;;;;;;;;;;;;29.12;37.16;100241.88;5143067;27;20286;-69
2021/06/22 08:36:39;;;;;;;;;;;;;;;29.12;38.20;100239.06;5125475;27;20291;-69
2021/06/22 08:39:23;;;;;;;;;;;;;;;29.21;36.75;100239.94;5145171;27;20370;-69
2021/06/22 08:42:09;;;;;;;;;;;;;;;29.29;37.77;100237.66;5143224;27;19919;-71
2021/06/22 08:44:54;;;;;;;;;;;;;;;29.26;37.33;100241.34;5141470;27;19916;-70
2021/06/22 08:47:38;;;;;;;;;;;;;;;29.24;38.17;100247.44;5139363;27;19923;-69
2021/06/22 08:50:23;;;;;;;;;;;;;;;29.24;38.00;100249.47;5139613;27;19915;-69
2021/06/22 08:53:09;;;;;;;;;;;;;;;29.37;37.20;100250.19;5138474;27;19915;-69
2021/06/22 08:55:53;;;;;;;;;;;;;;;29.39;37.32;100244.94;5135539;27;19915;-70
2021/06/22 08:58:38;;;;;;;;;;;;;;;29.40;37.46;100246.50;5136129;27;19924;-71
2021/06/22 09:01:23;;;;;;;;;;;;;;;29.47;38.00;100243.44;5138145;27;19915;-70
2021/06/22 09:04:08;;;;;;;;;;;;;;;29.46;37.97;100244.66;5135903;27;19919;-69
2021/06/22 09:06:52;;;;;;;;;;;;;;;29.38;38.09;100246.16;5140399;27;19916;-69
2021/06/22 09:09:38;;;;;;;;;;;;;;;29.38;38.16;100251.78;5138684;27;19916;-69
2021/06/22 09:12:25;;;;;;;;;;;;;;;29.40;37.76;100254.91;5136713;27;20343;-70
2021/06/22 09:15:22;;;;;;;;;;;;;;;29.36;37.84;100259.09;5140029;27;20290;-70
2021/06/22 09:18:25;;;;;;;;;;;;;;;29.50;36.87;100245.34;5137132;27;19915;-70
2021/06/22 09:21:24;;;;;;;;;;;;;;;29.44;38.19;100257.56;5141009;27;20294;-70
2021/06/22 09:24:19;;;;;;;;;;;;;;;29.40;37.76;100254.13;5138146;27;20290;-70
2021/06/22 09:27:04;;;;;;;;;;;;;;;29.52;38.28;100251.25;5133088;27;19915;-70
2021/06/22 09:29:48;;;;;;;;;;;;;;;29.55;37.74;100253.16;5138110;27;19919;-69
2021/06/22 09:32:33;;;;;;;;;;;;;;;29.44;38.21;100258.34;5137089;27;19915;-69
2021/06/22 09:35:21;;;;;;;;;;;;;;;29.44;37.92;100258.34;5133592;27;19919;-68
2021/06/22 09:38:06;;;;;;;;;;;;;;;29.57;37.82;100266.69;5135454;27;20343;-69
2021/06/22 09:41:02;;;;;;;;;;;;;;;29.55;37.89;100261.56;5139180;27;19920;-69
2021/06/22 09:43:52;;;;;;;;;;;;;;;29.52;36.41;100259.66;5135204;27;19919;-70
2021/06/22 09:46:41;;;;;;;;;;;;;;;29.72;37.43;100265.72;5138408;27;19915;-69
2021/06/22 09:49:27;;;;;;;;;;;;;;;29.74;37.52;100262.47;5135077;27;20370;-69
2021/06/22 09:52:15;;;;;;;;;;;;;;;29.64;37.33;100261.63;5128035;27;19919;-68
2021/06/22 09:55:00;;;;;;;;;;;;;;;29.64;37.05;100261.63;5132279;27;19915;-69
2021/06/22 09:57:45;;;;;;;;;;;;;;;29.59;37.92;100262.22;5135534;27;20293;-70
2021/06/22 10:00:36;;;;;;;;;;;;;;;29.71;37.27;100269.75;5113000;27;19923;-70
2021/06/22 10:03:33;;;;;;;;;;;;;;;29.65;37.01;100268.81;5135050;27;20366;-69
2021/06/22 10:06:18;;;;;;;;;;;;;;;29.76;34.39;100271.22;5121839;27;19919;-69
2021/06/22 10:09:02;;;;;;;;;;;;;;;29.76;35.35;100260.75;5140109;27;20101;-69
2021/06/22 10:11:54;;;;;;;;;;;;;;;29.96;36.68;100274.47;5134660;27;20063;-70
2021/06/22 10:14:42;;;;;;;;;;;;;;;29.67;37.15;100269.09;5125778;27;19915;-70
2021/06/22 10:17:29;;;;;;;;;;;;;;;29.39;38.10;100270.16;5117118;28;19920;-70
2021/06/22 10:20:14;;;;;;;;;;;;;;;29.46;38.24;100261.47;5116813;28;19920;-70
2021/06/22 10:22:58;;;;;;;;;;;;;;;29.59;38.06;100267.81;5114811;27;20582;-69
2021/06/22 10:25:42;;;;;;;;;;;;;;;29.50;37.91;100264.94;5131329;27;19923;-69
2021/06/22 10:28:27;;;;;;;;;;;;;;;29.56;35.22;100267.94;5129638;27;19916;-69
2021/06/22 10:31:12;;;;;;;;;;;;;;;29.65;35.56;100263.19;5135952;27;20282;-70
2021/06/22 10:33:57;;;;;;;;;;;;;;;29.92;34.90;100268.19;5139947;27;19919;-69
2021/06/22 10:36:50;;;;;;;;;;;;;;;29.92;36.56;100271.00;5130903;27;20370;-69
2021/06/22 10:39:36;;;;;;;;;;;;;;;29.69;36.69;100271.47;5134971;27;19919;-69
2021/06/22 10:42:22;;;;;;;;;;;;;;;29.55;37.41;100272.00;5139181;27;19915;-70
2021/06/22 10:45:07;;;;;;;;;;;;;;;29.63;36.18;100262.84;5135343;27;20379;-70
2021/06/22 10:47:56;;;;;;;;;;;;;;;29.77;36.55;100273.53;5133872;27;19915;-70
2021/06/22 10:50:41;;;;;;;;;;;;;;;29.85;35.92;100274.06;5133653;27;19915;-69
2021/06/22 10:53:42;;;;;;;;;;;;;;;29.83;35.82;100272.94;5134917;27;19915;-70
2021/06/22 10:56:28;;;;;;;;;;;;;;;29.87;34.96;100276.41;5114683;27;20387;-70
2021/06/22 10:59:18;;;;;;;;;;;;;;;29.79;35.94;100272.28;5134366;27;19919;-69
2021/06/22 11:02:05;;;;;;;;;;;;;;;29.60;32.86;100275.00;5134943;27;19916;-69
2021/06/22 11:05:13;;;;;;;;;;;;;;;29.91;34.57;100265.88;5135328;27;19916;-69
2021/06/22 11:08:13;;;;;;;;;;;;;;;30.33;30.22;100269.81;5129849;27;20375;-67
2021/06/22 11:10:58;;;;;;;;;;;;;;;30.78;32.00;100266.38;5123282;27;20375;-70
2021/06/22 11:14:02;;;;;;;;;;;;;;;30.56;34.04;100266.50;5134935;27;19916;-69
2021/06/22 11:16:46;;;;;;;;;;;;;;;30.27;32.83;100260.44;5129275;27;19915;-70
2021/06/22 11:19:31;;;;;;;;;;;;;;;30.24;34.73;100263.38;5133772;27;19919;-69
2021/06/22 11:22:15;;;;;;;;;;;;;;;30.03;35.73;100267.78;5141623;27;19915;-69
2021/06/22 11:24:59;;;;;;;;;;;;;;;29.90;34.71;100264.31;5134764;27;19915;-70
2021/06/22 11:28:03;;;;;;;;;;;;;;;30.09;36.03;100265.97;5138015;27;19915;-70
2021/06/22 11:30:59;;;;;;;;;;;;;;;30.02;34.88;100260.66;5134497;27;19919;-69
2021/06/22 11:33:46;;;;;;;;;;;;;;;29.96;35.17;100256.88;5132300;27;19915;-69
2021/06/22 11:36:32;;;;;;;;;;;;;;;30.06;35.62;100266.88;5141227;27;19916;-69
2021/06/22 11:39:18;;;;;;;;;;;;;;;29.96;35.81;100273.69;5142074;27;20378;-69
2021/06/22 11:44:56;;;;;;;;;;;;;;;30.02;33.85;100255.78;5138893;27;19915;-70
2021/06/22 11:47:47;;;;;;;;;;;;;;;30.31;32.51;100260.31;5134224;27;19916;-70
2021/06/22 11:50:33;;;;;;;;;;;;;;;30.39;31.82;100261.56;5132753;27;20386;-70
2021/06/22 11:53:17;;;;;;;;;;;;;;;30.17;34.53;100262.41;5136675;27;19923;-70
2021/06/22 11:56:12;;;;;;;;;;;;;;;29.97;34.79;100269.66;5134394;27;19949;-69
2021/06/22 11:58:59;;;;;;;;;;;;;;;29.71;35.82;100264.13;5132480;27;19915;-69
2021/06/22 12:01:44;;;;;;;;;;;;;;;29.93;32.75;100266.19;5131444;27;19919;-70
2021/06/22 12:04:29;;;;;;;;;;;;;;;30.07;33.18;100260.03;5125534;27;19919;-70
2021/06/22 12:07:14;;;;;;;;;;;;;;;30.06;33.44;100259.25;5126404;27;19915;-69
2021/06/22 12:10:00;;;;;;;;;;;;;;;30.27;33.57;100260.44;5129640;27;19920;-69
2021/06/22 12:12:46;;;;;;;;;;;;;;;30.21;34.92;100261.50;5126630;27;19924;-69
2021/06/22 12:15:33;;;;;;;;;;;;;;;30.20;34.96;100257.13;5136433;27;19915;-70
2021/06/22 12:18:18;;;;;;;;;;;;;;;30.11;34.30;100257.88;5139844;27;19923;-69
2021/06/22 12:21:04;;;;;;;;;;;;;;;29.85;34.42;100257.25;5126980;27;19919;-69
2021/06/22 12:23:49;;;;;;;;;;;;;;;29.98;31.49;100257.94;5139594;27;19915;-69
2021/06/22 12:26:35;;;;;;;;;;;;;;;30.25;33.97;100256.53;5145198;27;20290;-71
2021/06/22 12:29:26;;;;;;;;;;;;;;;30.22;34.08;100255.44;5144218;27;19915;-70
2021/06/22 12:32:11;;;;;;;;;;;;;;;29.93;34.58;100255.75;5141615;27;19915;-70
2021/06/22 12:34:56;;;;;;;;;;;;;;;29.93;35.09;100249.34;5146457;27;19915;-71
2021/06/22 12:37:41;;;;;;;;;;;;;;;29.89;34.50;100257.91;5129973;27;19915;-70
2021/06/22 12:40:25;;;;;;;;;;;;;;;29.80;35.60;100259.84;5144451;27;20298;-69
2021/06/22 12:43:11;;;;;;;;;;;;;;;29.63;35.03;100262.84;5126018;27;19915;-70
2021/06/22 12:46:02;;;;;;;;;;;;;;;29.50;36.10;100256.53;5135929;27;19915;-69
2021/06/22 12:48:48;;;;;;;;;;;;;;;29.51;35.62;100260.88;5135441;27;19916;-70
2021/06/22 12:51:33;;;;;;;;;;;;;;;29.76;34.93;100269.16;5144178;27;19915;-70
2021/06/22 12:54:18;;;;;;;;;;;;;;;29.98;33.14;100266.38;5146507;27;19927;-70
2021/06/22 12:57:03;;;;;;;;;;;;;;;30.22;29.93;100263.84;5151576;27;20286;-70
2021/06/22 12:59:49;;;;;;;;;;;;;;;30.21;31.50;100262.28;5146464;27;19919;-70
2021/06/22 13:02:33;;;;;;;;;;;;;;;30.15;33.17;100272.53;5145876;27;19915;-69
2021/06/22 13:05:31;;;;;;;;;;;;;;;30.04;33.36;100266.56;5150689;27;19923;-71
2021/06/22 13:08:18;;;;;;;;;;;;;;;29.99;31.47;100261.53;5147067;27;20298;-71
2021/06/22 13:11:05;;;;;;;;;;;;;;;30.05;33.15;100260.50;5147078;27;19915;-71
2021/06/22 13:13:50;;;;;;;;;;;;;;;29.95;32.65;100260.91;5143530;27;19919;-71
2021/06/22 13:16:34;;;;;;;;;;;;;;;29.84;30.72;100263.28;5144599;27;19915;-71
2021/06/22 13:19:18;;;;;;;;;;;;;;;29.96;30.26;100256.88;5145127;27;19927;-71
2021/06/22 13:22:04;;;;;;;;;;;;;;;30.08;31.86;100258.78;5150935;27;19915;-69
2021/06/22 13:24:48;;;;;;;;;;;;;;;30.22;30.43;100268.69;5145545;27;19915;-70
2021/06/22 13:27:42;;;;;;;;;;;;;;;30.48;27.42;100259.59;5144406;27;19915;-70
2021/06/22 13:30:28;;;;;;;;;;;;;;;30.48;32.13;100256.78;5124573;27;20291;-71
2021/06/22 13:33:17;;;;;;;;;;;;;;;30.46;30.13;100253.69;5146519;27;19915;-71
2021/06/22 13:36:02;;;;;;;;;;;;;;;30.22;31.18;100251.84;5141222;27;19915;-69
2021/06/22 13:38:59;;;;;;;;;;;;;;;30.31;30.81;100244.25;5122505;27;20311;-71
2021/06/22 13:41:52;;;;;;;;;;;;;;;30.04;31.82;100247.72;5136013;27;19919;-69
2021/06/22 13:44:38;;;;;;;;;;;;;;;29.70;33.09;100245.78;5124128;27;19919;-70
2021/06/22 13:47:33;;;;;;;;;;;;;;;29.81;33.05;100242.59;5138212;27;19916;-69
2021/06/22 13:50:22;;;;;;;;;;;;;;;29.88;33.18;100244.31;5129813;27;19916;-70
2021/06/22 13:53:07;;;;;;;;;;;;;;;29.93;32.11;100247.34;5138137;27;19915;-70
2021/06/22 13:55:52;;;;;;;;;;;;;;;30.00;33.24;100247.06;5127833;27;19924;-70
2021/06/22 13:58:39;;;;;;;;;;;;;;;29.99;32.50;100237.09;5129929;27;19923;-70
2021/06/22 14:01:23;;;;;;;;;;;;;;;29.86;31.70;100241.19;5134126;27;19920;-71
2021/06/22 14:04:08;;;;;;;;;;;;;;;29.87;32.75;100243.53;5138115;27;19916;-69
2021/06/22 14:06:52;;;;;;;;;;;;;;;29.89;31.54;100241.09;5136528;27;19915;-70
2021/06/22 14:09:37;;;;;;;;;;;;;;;29.95;29.96;100233.66;5145312;27;20403;-71
2021/06/22 14:12:21;;;;;;;;;;;;;;;30.30;30.81;100242.69;5147502;27;19915;-70
2021/06/22 14:15:06;;;;;;;;;;;;;;;30.33;30.99;100241.75;5141892;27;19916;-69
2021/06/22 14:17:53;;;;;;;;;;;;;;;30.12;32.71;100237.00;5144594;27;19915;-70
2021/06/22 14:20:38;;;;;;;;;;;;;;;29.97;32.85;100238.81;5147072;27;19924;-71